Pioneer Knutsen — LMIK — position and weather

sailwx.info

Track history (hours):
 
Tides and Currents Weather Stations Pressure Air Temp Water Temp Dewpoint Dewpoint Depression Visibility Wind Speed Wind Dir Waves Ship Positions

Pioneer Knutsen

Last reported at 2014-Sep-01 12:10 UTC. Time now 2014-Sep-02 19:00 UTC.
Position N 62°39' E 006°24'.

Length 70 m; draft 3.6 m.

Type: Tanker. MMSI: 259393000.

Date/timePositionNaut miles runAvg speedWind from/ knotsBaromVisibWave heightAir tempDewpointWater temp
2014-Sep-01 12:10N 62°39' E 006°24'810.3
2014-Sep-01 11:23N 62°46' E 006°34'16711.0
2014-Aug-31 20:10N 64°45' E 010°59'812.6
2014-Aug-31 19:33N 64°51' E 011°12'1212.5
2014-Aug-31 18:33N 64°59' E 011°35'16 0.9
2014-Aug-31 01:33N 65°13' E 011°53'1312.9
2014-Aug-31 00:33N 65°01' E 011°40'1212.6
2014-Aug-30 23:33N 64°53' E 011°18'11011.7
2014-Aug-30 14:09N 63°26' E 008°42'256 6.8
2014-Aug-29 00:20N 59°30' E 005°13'912.1
2014-Aug-28 23:33N 59°21' E 005°19'1212.5
2014-Aug-28 22:33N 59°09' E 005°23'1211.6
2014-Aug-28 21:34N 58°59' E 005°33'3 3.0
2014-Aug-28 20:31N 58°55' E 005°35'0 0.0
2014-Aug-28 19:33N 58°55' E 005°35'0 0.0
2014-Aug-28 18:33N 58°55' E 005°35'0 0.0
2014-Aug-28 17:33N 58°55' E 005°35'0 0.0
2014-Aug-28 16:32N 58°55' E 005°35'0 0.0
2014-Aug-28 15:32N 58°55' E 005°35'0 0.0
2014-Aug-28 14:31N 58°55' E 005°35'0 0.0
2014-Aug-28 13:33N 58°55' E 005°35'1010.3
2014-Aug-28 12:33N 59°06' E 005°31'1211.4
2014-Aug-28 11:28N 59°17' E 005°20'9 9.3
2014-Aug-28 10:33N 59°25' E 005°15'  
2014-Aug-24 12:33N 59°29' E 005°13'8 8.1
2014-Aug-24 11:34N 59°21' E 005°19'1211.8
2014-Aug-24 10:33N 59°10' E 005°22'1110.7
2014-Aug-24 09:33N 59°01' E 005°33'5 5.0
2014-Aug-24 08:31N 58°55' E 005°35'0 0.0
2014-Aug-24 07:33N 58°55' E 005°35'0 0.0
2014-Aug-24 06:33N 58°55' E 005°35'0 0.0
2014-Aug-24 05:33N 58°55' E 005°35'0 0.0
2014-Aug-24 04:32N 58°55' E 005°35'0 0.0
2014-Aug-24 03:32N 58°55' E 005°35'0 0.0
2014-Aug-24 02:28N 58°55' E 005°35'0 0.0
2014-Aug-24 01:31N 58°55' E 005°35'2 2.4
2014-Aug-24 00:33N 58°58' E 005°33'1312.8
2014-Aug-23 23:33N 59°09' E 005°21'1313.4
2014-Aug-23 22:34N 59°22' E 005°18'  
Track history (hours):
 
Tides and Currents Weather Stations Pressure Air Temp Water Temp Dewpoint Dewpoint Depression Visibility Wind Speed Wind Dir Waves Ship Positions

Pioneer Knutsen

Last reported at 2014-Sep-01 12:10 UTC. Time now 2014-Sep-02 19:00 UTC.
Position N 62°39' E 006°24'.

Length 70 m; draft 3.6 m.

Type: Tanker. MMSI: 259393000.

Date/timePositionNaut miles runAvg speedWind from/ knotsBaromVisibWave heightAir tempDewpointWater temp
2014-Sep-01 12:10N 62°39' E 006°24'810.3
2014-Sep-01 11:23N 62°46' E 006°34'16711.0
2014-Aug-31 20:10N 64°45' E 010°59'812.6
2014-Aug-31 19:33N 64°51' E 011°12'1212.5
2014-Aug-31 18:33N 64°59' E 011°35'16 0.9
2014-Aug-31 01:33N 65°13' E 011°53'1312.9
2014-Aug-31 00:33N 65°01' E 011°40'1212.6
2014-Aug-30 23:33N 64°53' E 011°18'11011.7
2014-Aug-30 14:09N 63°26' E 008°42'256 6.8
2014-Aug-29 00:20N 59°30' E 005°13'912.1
2014-Aug-28 23:33N 59°21' E 005°19'1212.5
2014-Aug-28 22:33N 59°09' E 005°23'1211.6
2014-Aug-28 21:34N 58°59' E 005°33'3 3.0
2014-Aug-28 20:31N 58°55' E 005°35'0 0.0
2014-Aug-28 19:33N 58°55' E 005°35'0 0.0
2014-Aug-28 18:33N 58°55' E 005°35'0 0.0
2014-Aug-28 17:33N 58°55' E 005°35'0 0.0
2014-Aug-28 16:32N 58°55' E 005°35'0 0.0
2014-Aug-28 15:32N 58°55' E 005°35'0 0.0
2014-Aug-28 14:31N 58°55' E 005°35'0 0.0
2014-Aug-28 13:33N 58°55' E 005°35'1010.3
2014-Aug-28 12:33N 59°06' E 005°31'1211.4
2014-Aug-28 11:28N 59°17' E 005°20'9 9.3
2014-Aug-28 10:33N 59°25' E 005°15'  
2014-Aug-24 12:33N 59°29' E 005°13'8 8.1
2014-Aug-24 11:34N 59°21' E 005°19'1211.8
2014-Aug-24 10:33N 59°10' E 005°22'1110.7
2014-Aug-24 09:33N 59°01' E 005°33'5 5.0
2014-Aug-24 08:31N 58°55' E 005°35'0 0.0
2014-Aug-24 07:33N 58°55' E 005°35'0 0.0
2014-Aug-24 06:33N 58°55' E 005°35'0 0.0
2014-Aug-24 05:33N 58°55' E 005°35'0 0.0
2014-Aug-24 04:32N 58°55' E 005°35'0 0.0
2014-Aug-24 03:32N 58°55' E 005°35'0 0.0
2014-Aug-24 02:28N 58°55' E 005°35'0 0.0
2014-Aug-24 01:31N 58°55' E 005°35'2 2.4
2014-Aug-24 00:33N 58°58' E 005°33'1312.8
2014-Aug-23 23:33N 59°09' E 005°21'1313.4
2014-Aug-23 22:34N 59°22' E 005°18'  

Dump ship's entire track history